createdAt,value
2023-04-25T00:00:49.579Z,71.29
2023-04-25T00:03:22.257Z,71.14
2023-04-25T00:05:54.179Z,70.51
2023-04-25T00:08:26.065Z,70.38
2023-04-25T00:10:59.293Z,70.24
2023-04-25T00:13:30.798Z,69.89
2023-04-25T00:16:03.627Z,70.22
2023-04-25T00:18:35.773Z,70.67
2023-04-25T00:21:07.344Z,70.72
2023-04-25T00:23:39.802Z,70.55
2023-04-25T00:26:11.535Z,71.39
2023-04-25T00:28:43.169Z,71.86
2023-04-25T00:31:15.219Z,71.66
2023-04-25T00:33:46.780Z,71.91
2023-04-25T00:36:19.204Z,71.28
2023-04-25T00:38:50.742Z,72.45
2023-04-25T00:41:22.628Z,71.99
2023-04-25T00:43:56.387Z,71.49
2023-04-25T00:46:28.066Z,71.36
2023-04-25T00:48:59.573Z,71.60
2023-04-25T00:51:31.800Z,71.62
2023-04-25T00:54:03.579Z,71.69
2023-04-25T00:56:35.218Z,71.38
2023-04-25T00:59:06.946Z,71.02
2023-04-25T01:01:40.106Z,70.80
2023-04-25T01:04:12.119Z,70.40
2023-04-25T01:06:43.907Z,70.26
2023-04-25T01:09:15.857Z,70.27
2023-04-25T01:11:47.352Z,71.04
2023-04-25T01:14:18.895Z,70.52
2023-04-25T01:16:50.769Z,70.51
2023-04-25T01:19:22.331Z,70.42
2023-04-25T01:21:53.899Z,70.41
2023-04-25T01:24:25.685Z,70.86
2023-04-25T01:26:57.926Z,69.99
2023-04-25T01:29:29.938Z,69.85
2023-04-25T01:32:02.553Z,70.31
2023-04-25T01:34:34.056Z,70.85
2023-04-25T01:37:05.653Z,70.40
2023-04-25T01:39:37.353Z,70.93
2023-04-25T01:42:09.490Z,71.16
2023-04-25T01:44:41.008Z,71.21
2023-04-25T01:47:12.593Z,71.32
2023-04-25T01:49:44.113Z,71.69
2023-04-25T01:52:15.626Z,71.75
2023-04-25T01:54:47.392Z,71.77
2023-04-25T01:57:18.877Z,71.01
2023-04-25T01:59:50.774Z,70.66
2023-04-25T02:02:22.311Z,71.02
2023-04-25T02:04:55.187Z,70.75
2023-04-25T02:07:27.442Z,71.16
2023-04-25T02:09:59.075Z,70.75
2023-04-25T02:12:30.846Z,70.25
2023-04-25T02:15:02.532Z,70.45
2023-04-25T02:17:34.514Z,69.41
2023-04-25T02:20:06.573Z,69.91
2023-04-25T02:22:38.105Z,69.09
2023-04-25T02:25:10.354Z,69.48
2023-04-25T02:27:41.847Z,68.84
2023-04-25T02:30:13.748Z,68.57
2023-04-25T02:32:45.678Z,68.42
2023-04-25T02:35:17.523Z,68.53
2023-04-25T02:37:49.246Z,68.95
2023-04-25T02:40:20.781Z,68.53
2023-04-25T02:42:52.469Z,68.95
2023-04-25T02:45:24.063Z,68.83
2023-04-25T02:47:55.666Z,67.78
2023-04-25T02:50:27.180Z,67.56
2023-04-25T02:52:58.603Z,67.35
2023-04-25T02:55:30.237Z,67.71
2023-04-25T02:58:01.712Z,67.91
2023-04-25T03:00:33.209Z,68.07
2023-04-25T03:03:04.735Z,69.98
2023-04-25T03:05:36.358Z,71.89
2023-04-25T03:08:07.879Z,71.51
2023-04-25T03:10:39.594Z,71.81
2023-04-25T03:13:11.148Z,71.77
2023-04-25T03:15:42.633Z,72.13
2023-04-25T03:18:14.139Z,71.94
2023-04-25T03:20:45.686Z,71.17
2023-04-25T03:23:17.159Z,70.75
2023-04-25T03:25:48.599Z,70.59
2023-04-25T03:28:20.100Z,70.93
2023-04-25T03:30:51.654Z,71.36
2023-04-25T03:33:23.372Z,71.60
2023-04-25T03:35:54.870Z,72.62
2023-04-25T03:38:26.308Z,72.06
2023-04-25T03:40:57.849Z,72.54
2023-04-25T03:43:29.403Z,72.88
2023-04-25T03:46:02.433Z,72.96
2023-04-25T03:48:34.037Z,73.29
2023-04-25T03:51:05.617Z,73.24
2023-04-25T03:53:37.121Z,72.88
2023-04-25T03:56:08.568Z,72.88
2023-04-25T03:58:40.036Z,73.12
2023-04-25T04:01:11.883Z,73.30
2023-04-25T04:03:43.602Z,74.03
2023-04-25T04:06:15.898Z,73.62
2023-04-25T04:08:47.794Z,74.32
2023-04-25T04:11:19.329Z,74.09
2023-04-25T04:13:51.051Z,74.10
2023-04-25T04:16:22.705Z,74.98
2023-04-25T04:18:54.243Z,75.67
2023-04-25T04:21:25.739Z,75.39
2023-04-25T04:23:58.687Z,75.82
2023-04-25T04:26:30.360Z,75.26
2023-04-25T04:29:02.347Z,75.67
2023-04-25T04:31:33.952Z,75.62
2023-04-25T04:34:05.716Z,75.63
2023-04-25T04:36:37.173Z,75.33
2023-04-25T04:39:10.200Z,75.86
2023-04-25T04:41:41.714Z,75.76
2023-04-25T04:44:13.462Z,76.72
2023-04-25T04:46:45.474Z,76.23
2023-04-25T04:49:17.102Z,75.79
2023-04-25T04:51:50.639Z,75.64
2023-04-25T04:54:22.109Z,75.58
2023-04-25T04:56:53.734Z,75.93
2023-04-25T04:59:25.201Z,75.35
2023-04-25T05:01:56.673Z,75.21
2023-04-25T05:04:28.236Z,75.64
2023-04-25T05:06:59.867Z,75.72
2023-04-25T05:09:31.392Z,75.37
2023-04-25T05:12:03.247Z,75.32
2023-04-25T05:14:34.809Z,75.30
2023-04-25T05:17:09.330Z,75.26
2023-04-25T05:19:40.808Z,75.90
2023-04-25T05:22:12.280Z,76.33
2023-04-25T05:24:43.861Z,76.62
2023-04-25T05:27:17.984Z,76.77
2023-04-25T05:29:49.507Z,77.07
2023-04-25T05:32:21.105Z,77.25
2023-04-25T05:34:52.852Z,76.40
2023-04-25T05:37:24.440Z,76.41
2023-04-25T05:39:55.924Z,75.69
2023-04-25T05:42:27.559Z,74.69
2023-04-25T05:44:59.071Z,73.28
2023-04-25T05:47:30.753Z,74.26
2023-04-25T05:50:02.990Z,81.18
2023-04-25T05:52:34.515Z,84.03
2023-04-25T05:55:06.716Z,85.50
2023-04-25T05:57:38.273Z,87.26
2023-04-25T06:00:10.586Z,88.05
2023-04-25T06:02:42.133Z,89.45
2023-04-25T06:05:13.886Z,90.82
2023-04-25T06:07:45.724Z,91.86
2023-04-25T06:10:17.185Z,91.68
2023-04-25T06:12:48.672Z,92.24
2023-04-25T06:17:54.895Z,90.72
2023-04-25T06:20:26.478Z,91.06
2023-04-25T06:22:58.256Z,90.16
2023-04-25T06:25:29.720Z,89.59
2023-04-25T06:28:01.189Z,89.15
2023-04-25T06:30:32.661Z,87.79
2023-04-25T06:33:04.367Z,87.62
2023-04-25T06:35:36.062Z,86.65
2023-04-25T06:38:07.543Z,86.24
2023-04-25T06:40:39.051Z,86.31
2023-04-25T06:43:10.860Z,86.52
2023-04-25T06:45:43.746Z,85.00
2023-04-25T06:48:16.629Z,83.85
2023-04-25T06:50:48.338Z,84.79
2023-04-25T06:53:19.895Z,83.49
2023-04-25T06:55:51.481Z,82.75
2023-04-25T06:58:23.258Z,83.01
2023-04-25T07:00:54.853Z,84.14
2023-04-25T07:03:26.516Z,82.88
2023-04-25T07:05:58.097Z,81.88
2023-04-25T07:08:30.596Z,80.84
2023-04-25T07:11:02.130Z,81.57
2023-04-25T07:13:33.649Z,81.45
2023-04-25T07:16:05.998Z,80.82
2023-04-25T07:18:37.456Z,79.21
2023-04-25T07:21:09.014Z,79.89
2023-04-25T07:23:41.739Z,79.22
2023-04-25T07:26:13.532Z,78.69
2023-04-25T07:28:45.264Z,78.79
2023-04-25T07:31:19.070Z,81.23
2023-04-25T07:33:50.574Z,81.32
2023-04-25T07:36:22.547Z,82.73
2023-04-25T07:38:54.035Z,81.29
2023-04-25T07:41:25.606Z,84.29
2023-04-25T07:43:57.122Z,82.29
2023-04-25T07:46:28.753Z,83.65
2023-04-25T07:49:00.224Z,78.89
2023-04-25T07:51:32.547Z,79.32
2023-04-25T07:54:03.937Z,78.98
2023-04-25T07:56:49.133Z,77.68
2023-04-25T07:59:23.637Z,77.05
2023-04-25T08:01:55.341Z,77.80
2023-04-25T08:04:27.178Z,74.88
2023-04-25T08:06:58.905Z,74.08
2023-04-25T08:09:34.834Z,73.61
2023-04-25T08:12:06.432Z,72.16
2023-04-25T08:14:38.346Z,73.34
2023-04-25T08:17:10.790Z,72.29
2023-04-25T08:19:42.116Z,70.96
2023-04-25T08:22:13.813Z,71.32
2023-04-25T08:24:45.292Z,72.99
2023-04-25T08:27:16.836Z,73.10
2023-04-25T08:29:48.610Z,70.04
2023-04-25T08:32:20.432Z,69.64
2023-04-25T08:34:54.988Z,70.63
2023-04-25T08:37:26.740Z,67.66
2023-04-25T08:39:58.258Z,66.22
2023-04-25T08:42:32.673Z,64.93
2023-04-25T08:45:07.041Z,62.72
2023-04-25T08:47:40.924Z,61.36
2023-04-25T08:50:12.753Z,62.39
2023-04-25T08:52:46.624Z,60.76
2023-04-25T08:55:18.369Z,60.90
2023-04-25T08:57:51.357Z,59.88
2023-04-25T09:00:23.852Z,57.01
2023-04-25T09:02:56.382Z,58.81
2023-04-25T09:05:29.762Z,59.24
2023-04-25T09:08:01.802Z,58.15
2023-04-25T09:10:33.683Z,56.83
2023-04-25T09:13:09.963Z,58.03
2023-04-25T09:15:50.339Z,55.35
2023-04-25T09:18:30.021Z,53.34
2023-04-25T09:21:14.234Z,53.77
2023-04-25T09:23:49.202Z,53.26
2023-04-25T09:26:22.332Z,53.71
2023-04-25T09:29:08.331Z,51.36
2023-04-25T09:31:39.891Z,51.84
2023-04-25T09:34:16.607Z,52.26
2023-04-25T09:36:48.190Z,51.66
2023-04-25T09:39:22.453Z,51.18
2023-04-25T09:41:57.917Z,51.61
2023-04-25T09:44:29.525Z,52.14
2023-04-25T09:47:01.110Z,54.40
2023-04-25T09:49:32.713Z,57.58
2023-04-25T09:52:04.252Z,55.90
2023-04-25T09:54:35.883Z,56.98
2023-04-25T09:57:15.928Z,55.69
2023-04-25T09:59:51.245Z,55.75
2023-04-25T10:02:27.607Z,54.65
2023-04-25T10:05:00.912Z,53.33
2023-04-25T10:07:34.965Z,53.64
2023-04-25T10:10:07.207Z,52.36
2023-04-25T10:12:40.517Z,52.58
2023-04-25T10:15:13.171Z,51.82
2023-04-25T10:17:45.013Z,51.02
2023-04-25T10:20:17.078Z,52.26
2023-04-25T10:22:55.119Z,54.88
2023-04-25T10:25:26.916Z,53.72
2023-04-25T10:28:00.800Z,55.51
2023-04-25T10:30:32.466Z,56.72
2023-04-25T10:33:19.161Z,57.49
2023-04-25T10:35:51.281Z,60.87
2023-04-25T10:38:22.865Z,60.92
2023-04-25T10:41:09.412Z,64.27
2023-04-25T10:43:45.321Z,64.83
2023-04-25T10:46:22.602Z,66.26
2023-04-25T10:48:57.753Z,68.83
2023-04-25T10:51:47.292Z,65.69
2023-04-25T10:54:24.063Z,66.51
2023-04-25T10:56:55.643Z,64.75
2023-04-25T10:59:29.076Z,64.60
2023-04-25T11:02:12.191Z,62.20
2023-04-25T11:04:45.517Z,59.20
2023-04-25T11:10:36.141Z,54.81
2023-04-25T11:13:07.695Z,54.55
2023-04-25T11:15:39.206Z,54.31
2023-04-25T11:18:11.010Z,55.90
2023-04-25T11:20:44.348Z,56.73
2023-04-25T11:23:16.777Z,56.14
2023-04-25T11:25:48.461Z,56.22
2023-04-25T11:28:25.626Z,58.55
2023-04-25T11:30:57.857Z,59.59
2023-04-25T11:33:29.577Z,62.70
2023-04-25T11:36:01.254Z,65.53
2023-04-25T11:38:32.970Z,69.98
2023-04-25T11:41:04.545Z,72.11
2023-04-25T11:43:36.509Z,71.29
2023-04-25T11:46:09.955Z,72.62
2023-04-25T11:48:43.160Z,69.65
2023-04-25T11:51:15.427Z,70.16
2023-04-25T11:53:47.190Z,71.02
2023-04-25T11:56:18.762Z,70.71
2023-04-25T11:59:04.169Z,69.56
2023-04-25T12:01:37.980Z,70.21
2023-04-25T12:04:17.501Z,71.00
2023-04-25T12:06:51.700Z,71.66
2023-04-25T12:09:32.003Z,71.82
2023-04-25T12:12:04.240Z,71.40
2023-04-25T12:14:37.305Z,71.81
2023-04-25T12:17:10.837Z,73.60
2023-04-25T12:19:42.701Z,73.63
2023-04-25T12:22:25.665Z,73.38
2023-04-25T12:24:59.377Z,72.53
2023-04-25T12:27:32.980Z,72.78
2023-04-25T12:30:05.037Z,73.78
2023-04-25T12:32:37.415Z,74.79
2023-04-25T12:35:09.285Z,74.31
2023-04-25T12:37:41.155Z,74.81
2023-04-25T12:40:12.829Z,77.81
2023-04-25T12:42:44.336Z,77.14
2023-04-25T12:45:16.120Z,75.56
2023-04-25T12:47:47.779Z,74.40
2023-04-25T12:50:19.438Z,75.84
2023-04-25T12:52:51.207Z,76.31
2023-04-25T12:55:22.815Z,75.67
2023-04-25T12:57:54.348Z,76.36
2023-04-25T13:00:26.019Z,76.79
2023-04-25T13:02:57.726Z,77.55
2023-04-25T13:05:29.266Z,78.76
2023-04-25T13:08:00.732Z,79.61
2023-04-25T13:10:32.346Z,79.84
2023-04-25T13:13:03.899Z,78.15
2023-04-25T13:15:36.356Z,78.38
2023-04-25T13:18:07.973Z,78.83
2023-04-25T13:20:39.535Z,77.19
2023-04-25T13:23:11.209Z,79.55
2023-04-25T13:25:42.723Z,80.76
2023-04-25T13:28:14.952Z,81.07
2023-04-25T13:30:46.708Z,80.86
2023-04-25T13:33:18.761Z,77.94
2023-04-25T13:35:54.849Z,79.19
2023-04-25T13:38:26.742Z,81.02
2023-04-25T13:40:58.305Z,80.90
2023-04-25T13:43:29.807Z,81.06
2023-04-25T13:46:01.392Z,81.12
2023-04-25T13:48:32.992Z,80.70
2023-04-25T13:51:04.482Z,81.48
2023-04-25T13:53:36.186Z,80.85
2023-04-25T13:56:07.748Z,83.10
2023-04-25T13:58:39.270Z,81.86
2023-04-25T14:01:10.780Z,82.20
2023-04-25T14:03:43.076Z,82.79
2023-04-25T14:06:14.643Z,80.67
2023-04-25T14:08:46.474Z,81.42
2023-04-25T14:11:19.218Z,79.87
2023-04-25T14:13:50.989Z,79.75
2023-04-25T14:16:23.880Z,77.24
2023-04-25T14:18:55.575Z,77.34
2023-04-25T14:21:29.084Z,73.29
2023-04-25T14:24:00.728Z,75.57
2023-04-25T14:26:32.287Z,75.48
2023-04-25T14:29:06.052Z,76.95
2023-04-25T14:31:37.571Z,73.26
2023-04-25T14:34:09.589Z,75.20
2023-04-25T14:36:41.092Z,75.18
2023-04-25T14:39:15.055Z,75.84
2023-04-25T14:41:46.570Z,77.09
2023-04-25T14:44:18.642Z,76.08
2023-04-25T14:46:52.662Z,78.37
2023-04-25T14:49:24.287Z,76.39
2023-04-25T14:51:55.938Z,76.49
2023-04-25T14:54:27.440Z,76.42
2023-04-25T14:56:59.022Z,77.19
2023-04-25T14:59:30.498Z,75.58
2023-04-25T15:02:02.034Z,74.60
2023-04-25T15:04:34.293Z,73.25
2023-04-25T15:07:06.125Z,75.40
2023-04-25T15:09:37.662Z,75.94
2023-04-25T15:12:09.263Z,76.57
2023-04-25T15:14:41.095Z,75.10
2023-04-25T15:17:14.912Z,76.69
2023-04-25T15:19:46.484Z,77.44
2023-04-25T15:22:18.016Z,76.63
2023-04-25T15:24:49.702Z,74.00
2023-04-25T15:27:24.135Z,67.54
2023-04-25T15:29:55.886Z,63.54
2023-04-25T15:32:27.580Z,63.58
2023-04-25T15:34:59.257Z,65.56
2023-04-25T15:37:31.315Z,66.38
2023-04-25T15:40:11.845Z,71.60
2023-04-25T15:42:48.852Z,72.03
2023-04-25T15:45:24.120Z,73.12
2023-04-25T15:47:56.968Z,74.35
2023-04-25T15:50:28.524Z,74.68
2023-04-25T15:53:00.016Z,75.08
2023-04-25T15:55:31.992Z,75.79
2023-04-25T15:58:03.489Z,74.64
2023-04-25T16:00:36.243Z,75.76
2023-04-25T16:03:07.935Z,76.04
2023-04-25T16:05:39.578Z,77.97
2023-04-25T16:08:11.076Z,77.87
2023-04-25T16:10:42.942Z,77.39
2023-04-25T16:13:14.522Z,77.28
2023-04-25T16:15:46.051Z,77.36
2023-04-25T16:18:17.924Z,78.69
2023-04-25T16:20:49.626Z,80.21
2023-04-25T16:23:21.169Z,81.21
2023-04-25T16:25:52.908Z,79.50
2023-04-25T16:28:24.370Z,79.92
2023-04-25T16:30:56.239Z,78.34
2023-04-25T16:33:27.860Z,80.34
2023-04-25T16:35:59.410Z,79.94
2023-04-25T16:38:30.975Z,78.61
2023-04-25T16:41:02.633Z,79.64
2023-04-25T16:43:34.366Z,79.58
2023-04-25T16:46:05.989Z,80.25
2023-04-25T16:48:37.458Z,79.40
2023-04-25T16:51:08.978Z,78.54
2023-04-25T16:53:41.402Z,79.25
2023-04-25T16:56:13.183Z,79.30
2023-04-25T16:58:44.726Z,79.85
2023-04-25T17:01:17.218Z,79.84
2023-04-25T17:03:49.244Z,79.99
2023-04-25T17:06:20.924Z,79.68
2023-04-25T17:08:52.553Z,81.17
2023-04-25T17:11:24.425Z,80.88
2023-04-25T17:13:56.037Z,79.29
2023-04-25T17:16:35.299Z,79.80
2023-04-25T17:19:07.456Z,79.89
2023-04-25T17:21:39.000Z,79.65
2023-04-25T17:24:11.784Z,79.35
2023-04-25T17:26:43.388Z,79.61
2023-04-25T17:29:15.410Z,80.07
2023-04-25T17:31:47.049Z,79.53
2023-04-25T17:34:18.605Z,78.56
2023-04-25T17:36:50.181Z,78.96
2023-04-25T17:39:21.619Z,78.95
2023-04-25T17:41:53.142Z,78.92
2023-04-25T17:44:24.815Z,79.14
2023-04-25T17:46:56.343Z,79.57
2023-04-25T17:49:28.060Z,79.81
2023-04-25T17:52:00.752Z,80.85
2023-04-25T17:54:32.351Z,80.48
2023-04-25T17:57:04.720Z,80.69
2023-04-25T17:59:36.420Z,80.28
2023-04-25T18:02:08.593Z,80.52
2023-04-25T18:04:40.332Z,80.69
2023-04-25T18:07:12.336Z,78.09
2023-04-25T18:09:44.848Z,75.36
2023-04-25T18:12:17.969Z,77.10
2023-04-25T18:14:49.457Z,79.55
2023-04-25T18:17:25.094Z,81.13
2023-04-25T18:19:56.650Z,82.94
2023-04-25T18:22:28.823Z,86.84
2023-04-25T18:25:01.394Z,87.66
2023-04-25T18:27:32.901Z,90.92
2023-04-25T18:30:11.543Z,91.36
2023-04-25T18:32:43.366Z,92.69
2023-04-25T18:35:17.330Z,91.75
2023-04-25T18:37:49.570Z,92.47
2023-04-25T18:40:21.290Z,91.69
2023-04-25T18:42:53.130Z,89.36
2023-04-25T18:45:25.040Z,88.78
2023-04-25T18:47:56.946Z,89.55
2023-04-25T18:50:28.605Z,89.18
2023-04-25T18:53:00.393Z,88.79
2023-04-25T18:55:32.074Z,87.35
2023-04-25T18:58:03.853Z,87.84
2023-04-25T19:00:35.653Z,88.71
2023-04-25T19:03:07.661Z,89.42
2023-04-25T19:05:39.452Z,90.26
2023-04-25T19:08:10.924Z,89.76
2023-04-25T19:10:42.439Z,88.58
2023-04-25T19:13:15.129Z,88.90
2023-04-25T19:15:49.691Z,87.64
2023-04-25T19:18:21.228Z,88.00
2023-04-25T19:20:52.848Z,89.27
2023-04-25T19:23:26.238Z,88.49
2023-04-25T19:25:58.012Z,88.43
2023-04-25T19:28:30.445Z,88.49
2023-04-25T19:31:02.450Z,88.69
2023-04-25T19:33:34.427Z,87.92
2023-04-25T19:36:06.069Z,88.57
2023-04-25T19:38:37.513Z,88.96
2023-04-25T19:41:08.988Z,89.57
2023-04-25T19:43:40.518Z,90.07
2023-04-25T19:46:12.136Z,90.94
2023-04-25T19:48:44.183Z,90.14
2023-04-25T19:51:15.685Z,90.23
2023-04-25T19:53:47.106Z,90.40
2023-04-25T19:56:18.631Z,89.85
2023-04-25T19:58:51.073Z,89.64
2023-04-25T20:01:23.260Z,89.20
2023-04-25T20:03:55.582Z,89.14
2023-04-25T20:06:28.895Z,88.91
2023-04-25T20:09:01.288Z,89.29
2023-04-25T20:11:33.648Z,88.92
2023-04-25T20:14:05.724Z,89.21
2023-04-25T20:16:37.668Z,89.17
2023-04-25T20:19:09.442Z,89.61
2023-04-25T20:21:41.284Z,89.12
2023-04-25T20:24:13.636Z,89.88
2023-04-25T20:26:45.463Z,90.57
2023-04-25T20:29:17.276Z,90.75
2023-04-25T20:31:50.770Z,91.55
2023-04-25T20:34:22.728Z,91.42
2023-04-25T20:36:54.533Z,91.71
2023-04-25T20:39:27.684Z,91.00
2023-04-25T20:42:01.913Z,90.89
2023-04-25T20:44:33.395Z,91.10
2023-04-25T20:47:05.739Z,90.56
2023-04-25T20:49:38.394Z,90.74
2023-04-25T20:52:11.308Z,90.90
2023-04-25T20:54:43.235Z,90.61
2023-04-25T20:57:14.749Z,90.28
2023-04-25T20:59:47.839Z,90.68
2023-04-25T21:02:20.788Z,90.43
2023-04-25T21:04:52.801Z,90.70
2023-04-25T21:07:24.456Z,91.33
2023-04-25T21:09:56.031Z,91.03
2023-04-25T21:12:27.833Z,90.90
2023-04-25T21:15:00.719Z,91.01
2023-04-25T21:17:32.289Z,91.90
2023-04-25T21:20:10.256Z,92.17
2023-04-25T21:22:49.360Z,91.66
2023-04-25T21:25:29.272Z,91.85
2023-04-25T21:28:02.620Z,92.29
2023-04-25T21:30:34.621Z,91.78
2023-04-25T21:33:06.541Z,91.49
2023-04-25T21:35:38.305Z,91.32
2023-04-25T21:38:10.065Z,91.46
2023-04-25T21:40:41.995Z,92.02
2023-04-25T21:43:13.817Z,90.85
2023-04-25T21:48:23.178Z,90.58
2023-04-25T21:50:55.662Z,90.92
2023-04-25T21:53:27.248Z,90.38
2023-04-25T21:55:58.749Z,90.34
2023-04-25T21:58:30.252Z,91.04
2023-04-25T22:01:01.840Z,90.58
2023-04-25T22:03:34.214Z,90.98
2023-04-25T22:06:06.061Z,90.81
2023-04-25T22:08:37.649Z,90.92
2023-04-25T22:11:09.371Z,90.89
2023-04-25T22:13:40.944Z,91.25
2023-04-25T22:16:12.681Z,90.96
2023-04-25T22:18:46.800Z,91.28
2023-04-25T22:21:18.411Z,91.64
2023-04-25T22:23:52.137Z,91.35
2023-04-25T22:26:25.406Z,91.80
2023-04-25T22:28:56.942Z,91.19
2023-04-25T22:31:29.035Z,91.51
2023-04-25T22:34:00.695Z,92.41
2023-04-25T22:36:33.203Z,90.49
2023-04-25T22:39:04.718Z,91.49
2023-04-25T22:41:36.415Z,90.77
2023-04-25T22:44:07.952Z,90.39
2023-04-25T22:46:39.557Z,90.07
2023-04-25T22:49:11.969Z,90.46
2023-04-25T22:51:43.416Z,89.18
2023-04-25T22:54:14.898Z,88.91
2023-04-25T22:56:46.386Z,89.21
2023-04-25T22:59:20.727Z,90.30
2023-04-25T23:01:52.570Z,88.62
2023-04-25T23:04:25.452Z,89.08
2023-04-25T23:06:57.206Z,89.94
2023-04-25T23:09:28.788Z,91.11
2023-04-25T23:12:00.376Z,91.32
2023-04-25T23:14:33.159Z,92.71
2023-04-25T23:17:05.148Z,93.24
2023-04-25T23:19:36.793Z,93.20
2023-04-25T23:22:08.581Z,93.90
2023-04-25T23:24:40.513Z,94.15
2023-04-25T23:27:12.020Z,93.63
2023-04-25T23:29:43.767Z,94.54
2023-04-25T23:32:15.248Z,94.62
2023-04-25T23:34:46.690Z,94.82
2023-04-25T23:37:18.243Z,95.44
2023-04-25T23:39:53.024Z,96.05
2023-04-25T23:42:24.588Z,95.40
2023-04-25T23:44:56.064Z,94.95
2023-04-25T23:47:27.590Z,94.58
2023-04-25T23:49:59.104Z,93.75
2023-04-25T23:52:30.634Z,94.18
2023-04-25T23:55:02.128Z,95.33
2023-04-25T23:57:33.884Z,95.54
